sensor_id;sensor_type;location;lat;lon;timestamp;temperature;humidity
68215;DHT22;55036;52.138;5.236;2024-02-28T00:01:53;5.20;87.90
68215;DHT22;55036;52.138;5.236;2024-02-28T00:04:19;5.20;88.10
68215;DHT22;55036;52.138;5.236;2024-02-28T00:06:46;5.10;87.90
68215;DHT22;55036;52.138;5.236;2024-02-28T00:09:13;5.10;87.90
68215;DHT22;55036;52.138;5.236;2024-02-28T00:11:44;5.10;87.80
68215;DHT22;55036;52.138;5.236;2024-02-28T00:14:14;5.10;87.70
68215;DHT22;55036;52.138;5.236;2024-02-28T00:16:45;5.00;87.50
68215;DHT22;55036;52.138;5.236;2024-02-28T00:19:12;5.00;87.80
68215;DHT22;55036;52.138;5.236;2024-02-28T00:21:40;5.00;88.70
68215;DHT22;55036;52.138;5.236;2024-02-28T00:24:07;4.90;87.60
68215;DHT22;55036;52.138;5.236;2024-02-28T00:26:34;4.80;87.50
68215;DHT22;55036;52.138;5.236;2024-02-28T00:29:01;4.80;87.80
68215;DHT22;55036;52.138;5.236;2024-02-28T00:31:28;4.80;87.90
68215;DHT22;55036;52.138;5.236;2024-02-28T00:33:55;4.70;87.90
68215;DHT22;55036;52.138;5.236;2024-02-28T00:36:22;4.70;87.80
68215;DHT22;55036;52.138;5.236;2024-02-28T00:38:49;4.60;87.60
68215;DHT22;55036;52.138;5.236;2024-02-28T00:41:15;4.60;87.70
68215;DHT22;55036;52.138;5.236;2024-02-28T00:43:42;4.50;87.80
68215;DHT22;55036;52.138;5.236;2024-02-28T00:46:09;4.50;87.80
68215;DHT22;55036;52.138;5.236;2024-02-28T00:48:39;4.50;88.00
68215;DHT22;55036;52.138;5.236;2024-02-28T00:51:06;4.50;87.90
68215;DHT22;55036;52.138;5.236;2024-02-28T00:53:35;4.40;87.90
68215;DHT22;55036;52.138;5.236;2024-02-28T00:56:02;4.40;88.00
68215;DHT22;55036;52.138;5.236;2024-02-28T00:58:28;4.40;87.80
68215;DHT22;55036;52.138;5.236;2024-02-28T01:00:56;4.30;88.60
68215;DHT22;55036;52.138;5.236;2024-02-28T01:03:24;4.30;87.70
68215;DHT22;55036;52.138;5.236;2024-02-28T01:05:51;4.30;88.00
68215;DHT22;55036;52.138;5.236;2024-02-28T01:08:18;4.20;88.00
68215;DHT22;55036;52.138;5.236;2024-02-28T01:10:46;4.20;88.00
68215;DHT22;55036;52.138;5.236;2024-02-28T01:13:13;4.20;88.10
68215;DHT22;55036;52.138;5.236;2024-02-28T01:15:40;4.20;88.00
68215;DHT22;55036;52.138;5.236;2024-02-28T01:18:09;4.10;87.80
68215;DHT22;55036;52.138;5.236;2024-02-28T01:20:37;4.10;88.00
68215;DHT22;55036;52.138;5.236;2024-02-28T01:23:03;4.10;88.00
68215;DHT22;55036;52.138;5.236;2024-02-28T01:25:30;4.10;88.00
68215;DHT22;55036;52.138;5.236;2024-02-28T01:27:57;4.00;87.90
68215;DHT22;55036;52.138;5.236;2024-02-28T01:30:27;4.00;87.90
68215;DHT22;55036;52.138;5.236;2024-02-28T01:32:54;4.00;87.90
68215;DHT22;55036;52.138;5.236;2024-02-28T01:35:20;3.90;87.90
68215;DHT22;55036;52.138;5.236;2024-02-28T01:37:47;3.90;87.80
68215;DHT22;55036;52.138;5.236;2024-02-28T01:40:14;3.90;87.80
68215;DHT22;55036;52.138;5.236;2024-02-28T01:42:41;3.90;87.90
68215;DHT22;55036;52.138;5.236;2024-02-28T01:45:12;3.80;87.80
68215;DHT22;55036;52.138;5.236;2024-02-28T01:47:43;3.80;87.90
68215;DHT22;55036;52.138;5.236;2024-02-28T01:50:10;3.80;87.80
68215;DHT22;55036;52.138;5.236;2024-02-28T01:52:39;3.70;88.00
68215;DHT22;55036;52.138;5.236;2024-02-28T01:55:06;3.80;88.10
68215;DHT22;55036;52.138;5.236;2024-02-28T01:57:34;3.70;88.20
68215;DHT22;55036;52.138;5.236;2024-02-28T02:00:05;3.70;88.40
68215;DHT22;55036;52.138;5.236;2024-02-28T02:02:33;3.70;88.30
68215;DHT22;55036;52.138;5.236;2024-02-28T02:05:00;3.70;88.30
68215;DHT22;55036;52.138;5.236;2024-02-28T02:07:26;3.60;88.00
68215;DHT22;55036;52.138;5.236;2024-02-28T02:09:54;3.60;88.30
68215;DHT22;55036;52.138;5.236;2024-02-28T02:12:21;3.60;88.30
68215;DHT22;55036;52.138;5.236;2024-02-28T02:14:48;3.60;88.50
68215;DHT22;55036;52.138;5.236;2024-02-28T02:17:15;3.60;88.60
68215;DHT22;55036;52.138;5.236;2024-02-28T02:19:42;3.60;88.70
68215;DHT22;55036;52.138;5.236;2024-02-28T02:22:10;3.60;88.70
68215;DHT22;55036;52.138;5.236;2024-02-28T02:24:38;3.60;88.50
68215;DHT22;55036;52.138;5.236;2024-02-28T02:27:05;3.60;88.50
68215;DHT22;55036;52.138;5.236;2024-02-28T02:29:32;3.60;88.70
68215;DHT22;55036;52.138;5.236;2024-02-28T02:31:59;3.60;88.60
68215;DHT22;55036;52.138;5.236;2024-02-28T02:34:25;3.60;88.60
68215;DHT22;55036;52.138;5.236;2024-02-28T02:36:52;3.60;88.70
68215;DHT22;55036;52.138;5.236;2024-02-28T02:39:19;3.70;88.80
68215;DHT22;55036;52.138;5.236;2024-02-28T02:41:46;3.70;88.70
68215;DHT22;55036;52.138;5.236;2024-02-28T02:44:13;3.70;89.00
68215;DHT22;55036;52.138;5.236;2024-02-28T02:46:40;3.70;89.10
68215;DHT22;55036;52.138;5.236;2024-02-28T02:49:07;3.80;88.90
68215;DHT22;55036;52.138;5.236;2024-02-28T02:51:33;3.80;88.90
68215;DHT22;55036;52.138;5.236;2024-02-28T02:54:00;3.80;89.00
68215;DHT22;55036;52.138;5.236;2024-02-28T02:56:27;3.90;89.30
68215;DHT22;55036;52.138;5.236;2024-02-28T02:58:54;3.90;89.30
68215;DHT22;55036;52.138;5.236;2024-02-28T03:01:20;3.90;89.40
68215;DHT22;55036;52.138;5.236;2024-02-28T03:03:47;4.00;89.60
68215;DHT22;55036;52.138;5.236;2024-02-28T03:06:14;4.00;89.50
68215;DHT22;55036;52.138;5.236;2024-02-28T03:08:41;4.00;89.60
68215;DHT22;55036;52.138;5.236;2024-02-28T03:11:07;4.00;89.50
68215;DHT22;55036;52.138;5.236;2024-02-28T03:13:35;4.00;89.50
68215;DHT22;55036;52.138;5.236;2024-02-28T03:16:04;4.10;89.50
68215;DHT22;55036;52.138;5.236;2024-02-28T03:18:30;4.10;89.60
68215;DHT22;55036;52.138;5.236;2024-02-28T03:20:57;4.10;90.10
68215;DHT22;55036;52.138;5.236;2024-02-28T03:23:24;4.10;89.50
68215;DHT22;55036;52.138;5.236;2024-02-28T03:25:51;4.20;89.60
68215;DHT22;55036;52.138;5.236;2024-02-28T03:28:17;4.20;89.70
68215;DHT22;55036;52.138;5.236;2024-02-28T03:30:44;4.20;89.70
68215;DHT22;55036;52.138;5.236;2024-02-28T03:33:11;4.20;89.80
68215;DHT22;55036;52.138;5.236;2024-02-28T03:35:38;4.30;89.80
68215;DHT22;55036;52.138;5.236;2024-02-28T03:38:05;4.30;89.80
68215;DHT22;55036;52.138;5.236;2024-02-28T03:40:32;4.40;89.80
68215;DHT22;55036;52.138;5.236;2024-02-28T03:42:59;4.40;89.80
68215;DHT22;55036;52.138;5.236;2024-02-28T03:45:28;4.40;90.10
68215;DHT22;55036;52.138;5.236;2024-02-28T03:47:55;4.50;90.10
68215;DHT22;55036;52.138;5.236;2024-02-28T03:50:22;4.60;90.10
68215;DHT22;55036;52.138;5.236;2024-02-28T03:52:49;4.60;90.10
68215;DHT22;55036;52.138;5.236;2024-02-28T03:55:15;4.60;90.10
68215;DHT22;55036;52.138;5.236;2024-02-28T03:57:42;4.70;90.00
68215;DHT22;55036;52.138;5.236;2024-02-28T04:00:14;4.70;90.20
68215;DHT22;55036;52.138;5.236;2024-02-28T04:02:41;4.70;90.30
68215;DHT22;55036;52.138;5.236;2024-02-28T04:05:08;4.80;90.40
68215;DHT22;55036;52.138;5.236;2024-02-28T04:07:35;4.80;90.40
68215;DHT22;55036;52.138;5.236;2024-02-28T04:10:01;4.80;90.30
68215;DHT22;55036;52.138;5.236;2024-02-28T04:12:28;4.80;90.30
68215;DHT22;55036;52.138;5.236;2024-02-28T04:14:56;4.90;90.40
68215;DHT22;55036;52.138;5.236;2024-02-28T04:17:22;4.90;90.40
68215;DHT22;55036;52.138;5.236;2024-02-28T04:19:49;4.90;90.40
68215;DHT22;55036;52.138;5.236;2024-02-28T04:22:16;4.90;90.40
68215;DHT22;55036;52.138;5.236;2024-02-28T04:24:43;4.90;90.40
68215;DHT22;55036;52.138;5.236;2024-02-28T04:27:10;4.90;90.40
68215;DHT22;55036;52.138;5.236;2024-02-28T04:29:38;4.90;90.40
68215;DHT22;55036;52.138;5.236;2024-02-28T04:32:05;5.00;90.40
68215;DHT22;55036;52.138;5.236;2024-02-28T04:34:32;5.00;90.40
68215;DHT22;55036;52.138;5.236;2024-02-28T04:36:58;5.00;90.40
68215;DHT22;55036;52.138;5.236;2024-02-28T04:39:25;5.00;90.40
68215;DHT22;55036;52.138;5.236;2024-02-28T04:41:52;5.10;90.40
68215;DHT22;55036;52.138;5.236;2024-02-28T04:44:19;5.10;90.40
68215;DHT22;55036;52.138;5.236;2024-02-28T04:46:45;5.10;90.30
68215;DHT22;55036;52.138;5.236;2024-02-28T04:49:12;5.10;90.40
68215;DHT22;55036;52.138;5.236;2024-02-28T04:51:39;5.10;90.40
68215;DHT22;55036;52.138;5.236;2024-02-28T04:54:06;5.20;90.50
68215;DHT22;55036;52.138;5.236;2024-02-28T04:56:32;5.20;90.50
68215;DHT22;55036;52.138;5.236;2024-02-28T04:58:59;5.20;90.50
68215;DHT22;55036;52.138;5.236;2024-02-28T05:01:26;5.20;90.60
68215;DHT22;55036;52.138;5.236;2024-02-28T05:03:55;5.20;90.60
68215;DHT22;55036;52.138;5.236;2024-02-28T05:06:22;5.30;90.60
68215;DHT22;55036;52.138;5.236;2024-02-28T05:08:48;5.30;90.60
68215;DHT22;55036;52.138;5.236;2024-02-28T05:11:15;5.30;90.50
68215;DHT22;55036;52.138;5.236;2024-02-28T05:13:42;5.30;90.50
68215;DHT22;55036;52.138;5.236;2024-02-28T05:16:13;5.30;90.50
68215;DHT22;55036;52.138;5.236;2024-02-28T05:18:40;5.30;90.70
68215;DHT22;55036;52.138;5.236;2024-02-28T05:21:06;5.30;90.70
68215;DHT22;55036;52.138;5.236;2024-02-28T05:23:33;5.30;90.60
68215;DHT22;55036;52.138;5.236;2024-02-28T05:26:00;5.40;90.60
68215;DHT22;55036;52.138;5.236;2024-02-28T05:28:34;5.40;90.60
68215;DHT22;55036;52.138;5.236;2024-02-28T05:31:26;5.40;90.70
68215;DHT22;55036;52.138;5.236;2024-02-28T05:33:54;5.40;90.70
68215;DHT22;55036;52.138;5.236;2024-02-28T05:36:28;5.40;90.70
68215;DHT22;55036;52.138;5.236;2024-02-28T05:38:57;5.40;90.70
68215;DHT22;55036;52.138;5.236;2024-02-28T05:41:24;5.40;90.80
68215;DHT22;55036;52.138;5.236;2024-02-28T05:43:51;5.40;90.80
68215;DHT22;55036;52.138;5.236;2024-02-28T05:46:18;5.40;90.80
68215;DHT22;55036;52.138;5.236;2024-02-28T05:48:45;5.40;90.80
68215;DHT22;55036;52.138;5.236;2024-02-28T05:51:13;5.40;90.80
68215;DHT22;55036;52.138;5.236;2024-02-28T05:53:40;5.50;90.80
68215;DHT22;55036;52.138;5.236;2024-02-28T05:56:09;5.50;90.80
68215;DHT22;55036;52.138;5.236;2024-02-28T05:58:44;5.50;90.80
68215;DHT22;55036;52.138;5.236;2024-02-28T06:01:11;5.50;90.80
68215;DHT22;55036;52.138;5.236;2024-02-28T06:03:38;5.50;90.80
68215;DHT22;55036;52.138;5.236;2024-02-28T06:06:05;5.50;90.80
68215;DHT22;55036;52.138;5.236;2024-02-28T06:08:33;5.50;90.70
68215;DHT22;55036;52.138;5.236;2024-02-28T06:11:00;5.50;90.80
68215;DHT22;55036;52.138;5.236;2024-02-28T06:13:28;5.50;90.80
68215;DHT22;55036;52.138;5.236;2024-02-28T06:15:56;5.50;90.80
68215;DHT22;55036;52.138;5.236;2024-02-28T06:18:24;5.60;90.80
68215;DHT22;55036;52.138;5.236;2024-02-28T06:20:54;5.60;90.80
68215;DHT22;55036;52.138;5.236;2024-02-28T06:23:22;5.50;90.80
68215;DHT22;55036;52.138;5.236;2024-02-28T06:25:56;5.60;90.90
68215;DHT22;55036;52.138;5.236;2024-02-28T06:28:23;5.60;90.90
68215;DHT22;55036;52.138;5.236;2024-02-28T06:30:49;5.60;90.90
68215;DHT22;55036;52.138;5.236;2024-02-28T06:33:16;5.60;91.00
68215;DHT22;55036;52.138;5.236;2024-02-28T06:35:43;5.60;91.00
68215;DHT22;55036;52.138;5.236;2024-02-28T06:38:10;5.70;91.10
68215;DHT22;55036;52.138;5.236;2024-02-28T06:40:37;5.70;91.10
68215;DHT22;55036;52.138;5.236;2024-02-28T06:43:04;5.70;91.10
68215;DHT22;55036;52.138;5.236;2024-02-28T06:45:31;5.70;91.10
68215;DHT22;55036;52.138;5.236;2024-02-28T06:47:58;5.70;91.10
68215;DHT22;55036;52.138;5.236;2024-02-28T06:50:25;5.70;91.20
68215;DHT22;55036;52.138;5.236;2024-02-28T06:52:52;5.70;91.10
68215;DHT22;55036;52.138;5.236;2024-02-28T06:55:20;5.70;91.10
68215;DHT22;55036;52.138;5.236;2024-02-28T06:57:47;5.80;91.20
68215;DHT22;55036;52.138;5.236;2024-02-28T07:00:14;5.80;91.10
68215;DHT22;55036;52.138;5.236;2024-02-28T07:02:42;5.80;91.20
68215;DHT22;55036;52.138;5.236;2024-02-28T07:05:09;5.80;91.30
68215;DHT22;55036;52.138;5.236;2024-02-28T07:07:36;5.70;91.50
68215;DHT22;55036;52.138;5.236;2024-02-28T07:10:04;5.70;91.70
68215;DHT22;55036;52.138;5.236;2024-02-28T07:12:31;5.80;91.50
68215;DHT22;55036;52.138;5.236;2024-02-28T07:14:58;5.80;91.60
68215;DHT22;55036;52.138;5.236;2024-02-28T07:17:24;5.90;91.60
68215;DHT22;55036;52.138;5.236;2024-02-28T07:19:51;5.90;91.70
68215;DHT22;55036;52.138;5.236;2024-02-28T07:22:18;5.90;91.70
68215;DHT22;55036;52.138;5.236;2024-02-28T07:24:45;6.00;91.60
68215;DHT22;55036;52.138;5.236;2024-02-28T07:27:11;6.00;91.60
68215;DHT22;55036;52.138;5.236;2024-02-28T07:29:38;6.10;91.60
68215;DHT22;55036;52.138;5.236;2024-02-28T07:32:05;6.20;91.50
68215;DHT22;55036;52.138;5.236;2024-02-28T07:34:32;6.20;91.60
68215;DHT22;55036;52.138;5.236;2024-02-28T07:37:00;6.20;91.70
68215;DHT22;55036;52.138;5.236;2024-02-28T07:39:27;6.20;91.80
68215;DHT22;55036;52.138;5.236;2024-02-28T07:41:54;6.20;91.80
68215;DHT22;55036;52.138;5.236;2024-02-28T07:44:22;6.20;91.90
68215;DHT22;55036;52.138;5.236;2024-02-28T07:46:49;6.30;91.90
68215;DHT22;55036;52.138;5.236;2024-02-28T07:49:18;6.30;91.90
68215;DHT22;55036;52.138;5.236;2024-02-28T07:51:45;6.30;91.90
68215;DHT22;55036;52.138;5.236;2024-02-28T07:54:12;6.30;92.10
68215;DHT22;55036;52.138;5.236;2024-02-28T07:56:39;6.30;92.10
68215;DHT22;55036;52.138;5.236;2024-02-28T07:59:06;6.30;92.00
68215;DHT22;55036;52.138;5.236;2024-02-28T08:01:33;6.30;92.20
68215;DHT22;55036;52.138;5.236;2024-02-28T08:04:00;6.30;92.20
68215;DHT22;55036;52.138;5.236;2024-02-28T08:06:29;6.30;92.10
68215;DHT22;55036;52.138;5.236;2024-02-28T08:08:55;6.40;92.30
68215;DHT22;55036;52.138;5.236;2024-02-28T08:11:22;6.40;92.20
68215;DHT22;55036;52.138;5.236;2024-02-28T08:13:50;6.40;92.40
68215;DHT22;55036;52.138;5.236;2024-02-28T08:16:17;6.40;92.40
68215;DHT22;55036;52.138;5.236;2024-02-28T08:18:44;6.40;92.50
68215;DHT22;55036;52.138;5.236;2024-02-28T08:21:11;6.40;92.70
68215;DHT22;55036;52.138;5.236;2024-02-28T08:23:37;6.40;92.60
68215;DHT22;55036;52.138;5.236;2024-02-28T08:26:04;6.40;92.70
68215;DHT22;55036;52.138;5.236;2024-02-28T08:28:31;6.30;92.90
68215;DHT22;55036;52.138;5.236;2024-02-28T08:30:58;6.40;92.80
68215;DHT22;55036;52.138;5.236;2024-02-28T08:33:25;6.50;92.80
68215;DHT22;55036;52.138;5.236;2024-02-28T08:35:52;6.60;92.60
68215;DHT22;55036;52.138;5.236;2024-02-28T08:38:20;6.70;92.80
68215;DHT22;55036;52.138;5.236;2024-02-28T08:40:47;6.70;92.70
68215;DHT22;55036;52.138;5.236;2024-02-28T08:43:13;6.70;92.80
68215;DHT22;55036;52.138;5.236;2024-02-28T08:45:40;6.70;92.90
68215;DHT22;55036;52.138;5.236;2024-02-28T08:48:07;6.80;92.90
68215;DHT22;55036;52.138;5.236;2024-02-28T08:50:34;6.80;92.70
68215;DHT22;55036;52.138;5.236;2024-02-28T08:53:02;6.90;92.70
68215;DHT22;55036;52.138;5.236;2024-02-28T08:55:29;6.90;92.70
68215;DHT22;55036;52.138;5.236;2024-02-28T08:57:57;6.90;92.70
68215;DHT22;55036;52.138;5.236;2024-02-28T09:00:24;6.90;92.70
68215;DHT22;55036;52.138;5.236;2024-02-28T09:02:51;7.00;92.60
68215;DHT22;55036;52.138;5.236;2024-02-28T09:05:18;7.00;92.70
68215;DHT22;55036;52.138;5.236;2024-02-28T09:07:45;7.20;92.80
68215;DHT22;55036;52.138;5.236;2024-02-28T09:10:18;7.20;92.90
68215;DHT22;55036;52.138;5.236;2024-02-28T09:12:50;7.20;92.70
68215;DHT22;55036;52.138;5.236;2024-02-28T09:15:17;7.40;93.00
68215;DHT22;55036;52.138;5.236;2024-02-28T09:17:44;7.50;92.90
68215;DHT22;55036;52.138;5.236;2024-02-28T09:20:11;7.60;92.80
68215;DHT22;55036;52.138;5.236;2024-02-28T09:22:38;7.90;92.60
68215;DHT22;55036;52.138;5.236;2024-02-28T09:25:06;8.00;93.00
68215;DHT22;55036;52.138;5.236;2024-02-28T09:27:33;8.20;92.90
68215;DHT22;55036;52.138;5.236;2024-02-28T09:29:59;8.40;92.60
68215;DHT22;55036;52.138;5.236;2024-02-28T09:32:26;8.50;91.90
68215;DHT22;55036;52.138;5.236;2024-02-28T09:34:53;8.60;92.20
68215;DHT22;55036;52.138;5.236;2024-02-28T09:37:20;8.70;92.20
68215;DHT22;55036;52.138;5.236;2024-02-28T09:39:49;8.70;91.30
68215;DHT22;55036;52.138;5.236;2024-02-28T09:42:15;8.70;91.60
68215;DHT22;55036;52.138;5.236;2024-02-28T09:44:43;8.80;91.40
68215;DHT22;55036;52.138;5.236;2024-02-28T09:47:10;8.80;91.20
68215;DHT22;55036;52.138;5.236;2024-02-28T09:49:38;8.80;91.30
68215;DHT22;55036;52.138;5.236;2024-02-28T09:52:05;8.80;91.40
68215;DHT22;55036;52.138;5.236;2024-02-28T09:54:32;9.00;91.10
68215;DHT22;55036;52.138;5.236;2024-02-28T09:56:59;9.10;90.90
68215;DHT22;55036;52.138;5.236;2024-02-28T09:59:26;9.20;91.10
68215;DHT22;55036;52.138;5.236;2024-02-28T10:02:12;9.30;90.90
68215;DHT22;55036;52.138;5.236;2024-02-28T10:04:41;9.30;90.60
68215;DHT22;55036;52.138;5.236;2024-02-28T10:07:11;9.40;90.70
68215;DHT22;55036;52.138;5.236;2024-02-28T10:09:41;9.50;90.50
68215;DHT22;55036;52.138;5.236;2024-02-28T10:12:09;9.60;90.90
68215;DHT22;55036;52.138;5.236;2024-02-28T10:14:36;9.70;90.20
68215;DHT22;55036;52.138;5.236;2024-02-28T10:17:05;9.70;88.80
68215;DHT22;55036;52.138;5.236;2024-02-28T10:19:32;9.70;89.40
68215;DHT22;55036;52.138;5.236;2024-02-28T10:21:58;9.60;89.50
68215;DHT22;55036;52.138;5.236;2024-02-28T10:24:26;9.70;90.00
68215;DHT22;55036;52.138;5.236;2024-02-28T10:26:53;9.90;89.60
68215;DHT22;55036;52.138;5.236;2024-02-28T10:29:23;10.10;90.20
68215;DHT22;55036;52.138;5.236;2024-02-28T10:31:51;10.30;90.00
68215;DHT22;55036;52.138;5.236;2024-02-28T10:34:18;10.30;86.50
68215;DHT22;55036;52.138;5.236;2024-02-28T10:36:46;10.20;88.20
68215;DHT22;55036;52.138;5.236;2024-02-28T10:39:14;10.30;88.80
68215;DHT22;55036;52.138;5.236;2024-02-28T10:41:41;10.40;88.80
68215;DHT22;55036;52.138;5.236;2024-02-28T10:44:09;10.40;88.30
68215;DHT22;55036;52.138;5.236;2024-02-28T10:46:38;10.50;88.50
68215;DHT22;55036;52.138;5.236;2024-02-28T10:49:05;10.60;88.20
68215;DHT22;55036;52.138;5.236;2024-02-28T10:51:35;10.50;85.70
68215;DHT22;55036;52.138;5.236;2024-02-28T10:54:09;10.30;86.80
68215;DHT22;55036;52.138;5.236;2024-02-28T10:56:42;10.30;87.00
68215;DHT22;55036;52.138;5.236;2024-02-28T10:59:11;10.40;87.90
68215;DHT22;55036;52.138;5.236;2024-02-28T11:01:41;10.50;87.10
68215;DHT22;55036;52.138;5.236;2024-02-28T11:04:13;10.60;87.60
68215;DHT22;55036;52.138;5.236;2024-02-28T11:07:08;10.60;87.20
68215;DHT22;55036;52.138;5.236;2024-02-28T11:09:35;10.70;87.20
68215;DHT22;55036;52.138;5.236;2024-02-28T11:12:04;10.70;87.10
68215;DHT22;55036;52.138;5.236;2024-02-28T11:14:31;10.60;86.30
68215;DHT22;55036;52.138;5.236;2024-02-28T11:17:05;10.60;87.00
68215;DHT22;55036;52.138;5.236;2024-02-28T11:19:33;10.60;86.80
68215;DHT22;55036;52.138;5.236;2024-02-28T11:22:02;10.60;86.70
68215;DHT22;55036;52.138;5.236;2024-02-28T11:24:33;10.60;86.80
68215;DHT22;55036;52.138;5.236;2024-02-28T11:27:01;10.50;86.70
68215;DHT22;55036;52.138;5.236;2024-02-28T11:29:30;10.50;87.30
68215;DHT22;55036;52.138;5.236;2024-02-28T11:31:57;10.50;87.10
68215;DHT22;55036;52.138;5.236;2024-02-28T11:34:24;10.60;87.80
68215;DHT22;55036;52.138;5.236;2024-02-28T11:36:51;10.60;86.50
68215;DHT22;55036;52.138;5.236;2024-02-28T11:39:19;10.50;86.90
68215;DHT22;55036;52.138;5.236;2024-02-28T11:41:48;10.50;87.30
68215;DHT22;55036;52.138;5.236;2024-02-28T11:44:16;10.50;86.70
68215;DHT22;55036;52.138;5.236;2024-02-28T11:46:44;10.50;87.20
68215;DHT22;55036;52.138;5.236;2024-02-28T11:49:15;10.60;87.60
68215;DHT22;55036;52.138;5.236;2024-02-28T11:51:45;10.50;87.00
68215;DHT22;55036;52.138;5.236;2024-02-28T11:54:12;10.50;87.20
68215;DHT22;55036;52.138;5.236;2024-02-28T11:56:40;10.50;87.70
68215;DHT22;55036;52.138;5.236;2024-02-28T11:59:08;10.60;87.30
68215;DHT22;55036;52.138;5.236;2024-02-28T12:01:40;10.70;86.50
68215;DHT22;55036;52.138;5.236;2024-02-28T12:04:08;10.70;87.50
68215;DHT22;55036;52.138;5.236;2024-02-28T12:06:38;10.80;86.30
68215;DHT22;55036;52.138;5.236;2024-02-28T12:09:23;10.70;87.00
68215;DHT22;55036;52.138;5.236;2024-02-28T12:12:01;10.70;86.90
68215;DHT22;55036;52.138;5.236;2024-02-28T12:14:36;10.80;86.80
68215;DHT22;55036;52.138;5.236;2024-02-28T12:17:03;10.80;87.10
68215;DHT22;55036;52.138;5.236;2024-02-28T12:19:29;10.90;87.00
68215;DHT22;55036;52.138;5.236;2024-02-28T12:21:56;10.90;86.30
68215;DHT22;55036;52.138;5.236;2024-02-28T12:24:25;10.90;86.60
68215;DHT22;55036;52.138;5.236;2024-02-28T12:26:52;10.90;86.60
68215;DHT22;55036;52.138;5.236;2024-02-28T12:29:18;10.90;86.80
68215;DHT22;55036;52.138;5.236;2024-02-28T12:31:45;11.00;86.90
68215;DHT22;55036;52.138;5.236;2024-02-28T12:34:12;11.00;87.10
68215;DHT22;55036;52.138;5.236;2024-02-28T12:36:42;11.10;86.70
68215;DHT22;55036;52.138;5.236;2024-02-28T12:39:11;11.00;86.40
68215;DHT22;55036;52.138;5.236;2024-02-28T12:41:38;11.00;86.30
68215;DHT22;55036;52.138;5.236;2024-02-28T12:44:06;11.00;86.40
68215;DHT22;55036;52.138;5.236;2024-02-28T12:46:36;11.10;86.30
68215;DHT22;55036;52.138;5.236;2024-02-28T12:49:03;11.10;85.40
68215;DHT22;55036;52.138;5.236;2024-02-28T12:51:41;11.00;85.90
68215;DHT22;55036;52.138;5.236;2024-02-28T12:54:09;10.90;85.50
68215;DHT22;55036;52.138;5.236;2024-02-28T12:56:39;10.90;86.40
68215;DHT22;55036;52.138;5.236;2024-02-28T12:59:06;11.00;86.10
68215;DHT22;55036;52.138;5.236;2024-02-28T13:01:36;11.00;85.50
68215;DHT22;55036;52.138;5.236;2024-02-28T13:04:03;11.10;86.10
68215;DHT22;55036;52.138;5.236;2024-02-28T13:06:30;11.20;86.60
68215;DHT22;55036;52.138;5.236;2024-02-28T13:08:56;11.40;85.80
68215;DHT22;55036;52.138;5.236;2024-02-28T13:11:24;11.40;84.80
68215;DHT22;55036;52.138;5.236;2024-02-28T13:13:51;11.40;84.90
68215;DHT22;55036;52.138;5.236;2024-02-28T13:16:19;11.40;85.40
68215;DHT22;55036;52.138;5.236;2024-02-28T13:18:46;11.30;85.40
68215;DHT22;55036;52.138;5.236;2024-02-28T13:21:13;11.30;85.40
68215;DHT22;55036;52.138;5.236;2024-02-28T13:23:40;11.40;84.90
68215;DHT22;55036;52.138;5.236;2024-02-28T13:26:07;11.40;85.00
68215;DHT22;55036;52.138;5.236;2024-02-28T13:28:34;11.40;85.10
68215;DHT22;55036;52.138;5.236;2024-02-28T13:31:03;11.40;85.00
68215;DHT22;55036;52.138;5.236;2024-02-28T13:33:33;11.40;84.80
68215;DHT22;55036;52.138;5.236;2024-02-28T13:36:00;11.40;84.50
68215;DHT22;55036;52.138;5.236;2024-02-28T13:38:26;11.40;84.90
68215;DHT22;55036;52.138;5.236;2024-02-28T13:40:53;11.40;84.80
68215;DHT22;55036;52.138;5.236;2024-02-28T13:43:20;11.40;85.00
68215;DHT22;55036;52.138;5.236;2024-02-28T13:45:50;11.40;84.80
68215;DHT22;55036;52.138;5.236;2024-02-28T13:48:22;11.30;84.80
68215;DHT22;55036;52.138;5.236;2024-02-28T13:50:51;11.30;84.80
68215;DHT22;55036;52.138;5.236;2024-02-28T13:53:18;11.20;85.30
68215;DHT22;55036;52.138;5.236;2024-02-28T13:55:45;11.10;85.00
68215;DHT22;55036;52.138;5.236;2024-02-28T13:58:13;11.10;84.60
68215;DHT22;55036;52.138;5.236;2024-02-28T14:00:40;11.00;85.20
68215;DHT22;55036;52.138;5.236;2024-02-28T14:03:07;11.00;85.70
68215;DHT22;55036;52.138;5.236;2024-02-28T14:05:33;11.00;85.90
68215;DHT22;55036;52.138;5.236;2024-02-28T14:08:00;11.00;86.00
68215;DHT22;55036;52.138;5.236;2024-02-28T14:10:27;11.10;85.90
68215;DHT22;55036;52.138;5.236;2024-02-28T14:12:54;11.10;85.90
68215;DHT22;55036;52.138;5.236;2024-02-28T14:15:21;11.20;85.30
68215;DHT22;55036;52.138;5.236;2024-02-28T14:17:49;11.10;85.60
68215;DHT22;55036;52.138;5.236;2024-02-28T14:20:16;11.10;85.30
68215;DHT22;55036;52.138;5.236;2024-02-28T14:22:43;11.10;85.40
68215;DHT22;55036;52.138;5.236;2024-02-28T14:25:14;11.10;85.40
68215;DHT22;55036;52.138;5.236;2024-02-28T14:27:45;11.10;85.00
68215;DHT22;55036;52.138;5.236;2024-02-28T14:30:13;11.10;85.60
68215;DHT22;55036;52.138;5.236;2024-02-28T14:32:41;11.10;85.60
68215;DHT22;55036;52.138;5.236;2024-02-28T14:35:09;11.10;85.50
68215;DHT22;55036;52.138;5.236;2024-02-28T14:37:37;11.10;85.70
68215;DHT22;55036;52.138;5.236;2024-02-28T14:40:07;11.10;85.50
68215;DHT22;55036;52.138;5.236;2024-02-28T14:42:39;11.10;85.60
68215;DHT22;55036;52.138;5.236;2024-02-28T14:45:10;11.10;85.60
68215;DHT22;55036;52.138;5.236;2024-02-28T14:47:41;10.90;86.10
68215;DHT22;55036;52.138;5.236;2024-02-28T14:50:09;10.90;86.50
68215;DHT22;55036;52.138;5.236;2024-02-28T14:52:39;10.90;86.20
68215;DHT22;55036;52.138;5.236;2024-02-28T14:55:08;10.80;86.50
68215;DHT22;55036;52.138;5.236;2024-02-28T14:57:36;10.80;86.50
68215;DHT22;55036;52.138;5.236;2024-02-28T15:00:06;10.70;87.00
68215;DHT22;55036;52.138;5.236;2024-02-28T15:02:41;10.60;87.30
68215;DHT22;55036;52.138;5.236;2024-02-28T15:05:08;10.50;87.80
68215;DHT22;55036;52.138;5.236;2024-02-28T15:07:35;10.50;87.60
68215;DHT22;55036;52.138;5.236;2024-02-28T15:10:03;10.50;88.20
68215;DHT22;55036;52.138;5.236;2024-02-28T15:12:32;10.40;88.70
68215;DHT22;55036;52.138;5.236;2024-02-28T15:15:00;10.30;88.60
68215;DHT22;55036;52.138;5.236;2024-02-28T15:17:29;10.40;88.10
68215;DHT22;55036;52.138;5.236;2024-02-28T15:19:55;10.50;88.40
68215;DHT22;55036;52.138;5.236;2024-02-28T15:22:22;10.40;88.10
68215;DHT22;55036;52.138;5.236;2024-02-28T15:24:49;10.50;88.00
68215;DHT22;55036;52.138;5.236;2024-02-28T15:27:16;10.60;88.10
68215;DHT22;55036;52.138;5.236;2024-02-28T15:29:43;10.50;88.10
68215;DHT22;55036;52.138;5.236;2024-02-28T15:32:09;10.60;87.80
68215;DHT22;55036;52.138;5.236;2024-02-28T15:34:38;10.60;88.00
68215;DHT22;55036;52.138;5.236;2024-02-28T15:37:05;10.60;87.90
68215;DHT22;55036;52.138;5.236;2024-02-28T15:39:32;10.50;88.30
68215;DHT22;55036;52.138;5.236;2024-02-28T15:41:58;10.50;88.30
68215;DHT22;55036;52.138;5.236;2024-02-28T15:44:27;10.50;88.40